sensor_id;sensor_type;location;lat;lon;timestamp;pressure;altitude;pressure_sealevel;temperature;humidity
77079;BME280;66004;55.096;38.760;2023-09-12T00:00:45;100533.31;;;8.88;70.48
77079;BME280;66004;55.096;38.760;2023-09-12T00:03:11;100530.75;;;8.78;70.56
77079;BME280;66004;55.096;38.760;2023-09-12T00:05:36;100533.66;;;8.73;70.57
77079;BME280;66004;55.096;38.760;2023-09-12T00:08:02;100531.41;;;8.61;70.58
77079;BME280;66004;55.096;38.760;2023-09-12T00:10:29;100536.19;;;8.61;70.66
77079;BME280;66004;55.096;38.760;2023-09-12T00:12:55;100542.44;;;8.57;70.65
77079;BME280;66004;55.096;38.760;2023-09-12T00:15:20;100543.06;;;8.54;70.73
77079;BME280;66004;55.096;38.760;2023-09-12T00:17:46;100537.03;;;8.47;70.92
77079;BME280;66004;55.096;38.760;2023-09-12T00:20:13;100537.16;;;8.42;70.96
77079;BME280;66004;55.096;38.760;2023-09-12T00:22:39;100546.16;;;8.39;71.00
77079;BME280;66004;55.096;38.760;2023-09-12T00:25:05;100535.19;;;8.29;70.94
77079;BME280;66004;55.096;38.760;2023-09-12T00:27:30;100547.22;;;8.29;70.77
77079;BME280;66004;55.096;38.760;2023-09-12T00:29:56;100541.72;;;8.24;70.65
77079;BME280;66004;55.096;38.760;2023-09-12T00:32:21;100549.28;;;8.24;71.17
77079;BME280;66004;55.096;38.760;2023-09-12T00:34:46;100546.59;;;8.18;70.86
77079;BME280;66004;55.096;38.760;2023-09-12T00:37:12;100544.31;;;8.21;70.80
77079;BME280;66004;55.096;38.760;2023-09-12T00:39:37;100542.66;;;8.19;70.90
77079;BME280;66004;55.096;38.760;2023-09-12T00:42:03;100537.06;;;8.19;70.88
77079;BME280;66004;55.096;38.760;2023-09-12T00:44:28;100537.66;;;8.16;70.78
77079;BME280;66004;55.096;38.760;2023-09-12T00:46:54;100541.59;;;8.15;70.86
77079;BME280;66004;55.096;38.760;2023-09-12T00:49:20;100535.47;;;8.13;70.91
77079;BME280;66004;55.096;38.760;2023-09-12T00:51:48;100526.69;;;8.06;71.02
77079;BME280;66004;55.096;38.760;2023-09-12T00:54:15;100538.94;;;8.10;71.12
77079;BME280;66004;55.096;38.760;2023-09-12T00:56:40;100534.44;;;8.09;70.80
77079;BME280;66004;55.096;38.760;2023-09-12T00:59:06;100530.41;;;8.02;70.93
77079;BME280;66004;55.096;38.760;2023-09-12T01:01:32;100536.81;;;8.02;70.89
77079;BME280;66004;55.096;38.760;2023-09-12T01:03:59;100540.78;;;8.01;71.01
77079;BME280;66004;55.096;38.760;2023-09-12T01:06:24;100537.47;;;7.99;70.94
77079;BME280;66004;55.096;38.760;2023-09-12T01:08:52;100548.47;;;7.95;70.98
77079;BME280;66004;55.096;38.760;2023-09-12T01:11:18;100549.91;;;7.93;71.01
77079;BME280;66004;55.096;38.760;2023-09-12T01:13:45;100549.28;;;7.96;71.19
77079;BME280;66004;55.096;38.760;2023-09-12T01:16:10;100558.22;;;7.98;71.03
77079;BME280;66004;55.096;38.760;2023-09-12T01:18:36;100554.28;;;7.99;71.13
77079;BME280;66004;55.096;38.760;2023-09-12T01:26:49;100555.41;;;7.98;71.04
77079;BME280;66004;55.096;38.760;2023-09-12T01:29:21;100555.09;;;7.99;71.07
77079;BME280;66004;55.096;38.760;2023-09-12T01:31:49;100544.84;;;7.95;71.07
77079;BME280;66004;55.096;38.760;2023-09-12T01:34:16;100550.97;;;7.97;71.13
77079;BME280;66004;55.096;38.760;2023-09-12T01:36:41;100551.56;;;7.94;71.17
77079;BME280;66004;55.096;38.760;2023-09-12T01:39:07;100556.13;;;7.90;71.31
77079;BME280;66004;55.096;38.760;2023-09-12T01:41:34;100547.44;;;7.91;71.16
77079;BME280;66004;55.096;38.760;2023-09-12T01:44:02;100552.50;;;7.89;71.33
77079;BME280;66004;55.096;38.760;2023-09-12T01:46:29;100536.41;;;7.81;70.99
77079;BME280;66004;55.096;38.760;2023-09-12T01:48:57;100553.34;;;7.90;71.08
77079;BME280;66004;55.096;38.760;2023-09-12T01:51:24;100576.28;;;7.92;71.48
77079;BME280;66004;55.096;38.760;2023-09-12T01:53:50;100570.06;;;7.95;71.24
77079;BME280;66004;55.096;38.760;2023-09-12T01:56:16;100569.41;;;7.98;71.32
77079;BME280;66004;55.096;38.760;2023-09-12T01:58:42;100578.66;;;7.98;71.17
77079;BME280;66004;55.096;38.760;2023-09-12T02:01:08;100564.34;;;8.00;71.02
77079;BME280;66004;55.096;38.760;2023-09-12T02:03:33;100586.22;;;7.98;71.14
77079;BME280;66004;55.096;38.760;2023-09-12T02:05:59;100580.63;;;7.98;71.27
77079;BME280;66004;55.096;38.760;2023-09-12T02:08:24;100582.91;;;7.96;70.96
77079;BME280;66004;55.096;38.760;2023-09-12T02:10:50;100583.72;;;7.96;71.04
77079;BME280;66004;55.096;38.760;2023-09-12T02:13:15;100583.44;;;7.98;70.86
77079;BME280;66004;55.096;38.760;2023-09-12T02:15:40;100582.31;;;7.99;70.76
77079;BME280;66004;55.096;38.760;2023-09-12T02:18:06;100570.66;;;7.92;70.80
77079;BME280;66004;55.096;38.760;2023-09-12T02:20:31;100580.94;;;7.96;70.98
77079;BME280;66004;55.096;38.760;2023-09-12T02:22:57;100572.72;;;7.86;70.95
77079;BME280;66004;55.096;38.760;2023-09-12T02:25:22;100587.47;;;7.92;70.88
77079;BME280;66004;55.096;38.760;2023-09-12T02:27:48;100589.25;;;7.88;70.98
77079;BME280;66004;55.096;38.760;2023-09-12T02:30:13;100578.13;;;7.83;71.12
77079;BME280;66004;55.096;38.760;2023-09-12T02:32:41;100588.94;;;7.89;71.06
77079;BME280;66004;55.096;38.760;2023-09-12T02:35:06;100582.03;;;7.82;70.93
77079;BME280;66004;55.096;38.760;2023-09-12T02:37:32;100591.81;;;7.84;70.94
77079;BME280;66004;55.096;38.760;2023-09-12T02:39:57;100594.19;;;7.77;70.99
77079;BME280;66004;55.096;38.760;2023-09-12T02:42:23;100585.56;;;7.73;71.14
77079;BME280;66004;55.096;38.760;2023-09-12T02:44:49;100600.53;;;7.83;70.86
77079;BME280;66004;55.096;38.760;2023-09-12T02:47:14;100605.00;;;7.84;70.99
77079;BME280;66004;55.096;38.760;2023-09-12T02:49:40;100589.31;;;7.69;70.81
77079;BME280;66004;55.096;38.760;2023-09-12T02:52:06;100612.78;;;7.87;70.84
77079;BME280;66004;55.096;38.760;2023-09-12T02:54:31;100604.88;;;7.89;71.01
77079;BME280;66004;55.096;38.760;2023-09-12T02:56:57;100599.28;;;7.89;71.16
77079;BME280;66004;55.096;38.760;2023-09-12T02:59:22;100604.72;;;7.99;70.90
77079;BME280;66004;55.096;38.760;2023-09-12T03:01:48;100618.59;;;8.04;71.05
77079;BME280;66004;55.096;38.760;2023-09-12T03:04:13;100614.91;;;8.09;71.26
77079;BME280;66004;55.096;38.760;2023-09-12T03:06:39;100613.44;;;8.11;70.91
77079;BME280;66004;55.096;38.760;2023-09-12T03:09:04;100620.72;;;8.12;71.03
77079;BME280;66004;55.096;38.760;2023-09-12T03:11:29;100614.47;;;8.15;70.68
77079;BME280;66004;55.096;38.760;2023-09-12T03:13:55;100610.13;;;8.09;70.38
77079;BME280;66004;55.096;38.760;2023-09-12T03:16:20;100621.16;;;8.19;70.85
77079;BME280;66004;55.096;38.760;2023-09-12T03:18:46;100628.38;;;8.21;70.97
77079;BME280;66004;55.096;38.760;2023-09-12T03:21:11;100620.50;;;8.23;70.54
77079;BME280;66004;55.096;38.760;2023-09-12T03:23:37;100618.84;;;8.22;70.60
77079;BME280;66004;55.096;38.760;2023-09-12T03:26:03;100626.09;;;8.23;70.72
77079;BME280;66004;55.096;38.760;2023-09-12T03:28:31;100621.97;;;8.20;70.77
77079;BME280;66004;55.096;38.760;2023-09-12T03:31:11;100619.47;;;8.18;70.65
77079;BME280;66004;55.096;38.760;2023-09-12T03:33:37;100620.50;;;8.23;70.51
77079;BME280;66004;55.096;38.760;2023-09-12T03:36:02;100622.19;;;8.24;70.79
77079;BME280;66004;55.096;38.760;2023-09-12T03:38:28;100617.81;;;8.17;70.74
77079;BME280;66004;55.096;38.760;2023-09-12T03:40:54;100622.19;;;8.24;70.79
77079;BME280;66004;55.096;38.760;2023-09-12T03:43:19;100625.41;;;8.31;70.73
77079;BME280;66004;55.096;38.760;2023-09-12T03:45:45;100616.88;;;8.36;70.69
77079;BME280;66004;55.096;38.760;2023-09-12T03:48:10;100616.78;;;8.41;70.51
77079;BME280;66004;55.096;38.760;2023-09-12T03:50:35;100613.69;;;8.43;70.59
77079;BME280;66004;55.096;38.760;2023-09-12T03:53:01;100621.69;;;8.49;70.14
77079;BME280;66004;55.096;38.760;2023-09-12T03:55:27;100615.03;;;8.45;70.29
77079;BME280;66004;55.096;38.760;2023-09-12T03:57:52;100628.22;;;8.58;70.36
77079;BME280;66004;55.096;38.760;2023-09-12T04:00:18;100623.03;;;8.66;70.01
77079;BME280;66004;55.096;38.760;2023-09-12T04:02:43;100624.91;;;8.70;70.01
77079;BME280;66004;55.096;38.760;2023-09-12T04:05:09;100627.78;;;8.79;69.90
77079;BME280;66004;55.096;38.760;2023-09-12T04:07:34;100635.28;;;8.84;69.84
77079;BME280;66004;55.096;38.760;2023-09-12T04:10:00;100632.13;;;8.85;69.37
77079;BME280;66004;55.096;38.760;2023-09-12T04:12:25;100632.13;;;8.85;69.46
77079;BME280;66004;55.096;38.760;2023-09-12T04:14:52;100633.41;;;8.93;69.25
77079;BME280;66004;55.096;38.760;2023-09-12T04:17:17;100625.78;;;8.93;69.06
77079;BME280;66004;55.096;38.760;2023-09-12T04:19:43;100634.47;;;9.06;68.85
77079;BME280;66004;55.096;38.760;2023-09-12T04:22:08;100638.97;;;9.07;68.83
77079;BME280;66004;55.096;38.760;2023-09-12T04:24:34;100637.69;;;9.13;68.88
77079;BME280;66004;55.096;38.760;2023-09-12T04:26:59;100638.19;;;9.15;68.33
77079;BME280;66004;55.096;38.760;2023-09-12T04:29:24;100640.59;;;9.22;68.57
77079;BME280;66004;55.096;38.760;2023-09-12T04:31:50;100644.09;;;9.27;68.18
77079;BME280;66004;55.096;38.760;2023-09-12T04:34:18;100648.66;;;9.37;67.99
77079;BME280;66004;55.096;38.760;2023-09-12T04:36:43;100647.38;;;9.43;67.85
77079;BME280;66004;55.096;38.760;2023-09-12T04:39:09;100638.63;;;9.45;68.04
77079;BME280;66004;55.096;38.760;2023-09-12T04:41:34;100649.47;;;9.60;67.95
77079;BME280;66004;55.096;38.760;2023-09-12T04:44:00;100645.44;;;9.66;67.67
77079;BME280;66004;55.096;38.760;2023-09-12T04:46:27;100637.69;;;9.72;67.37
77079;BME280;66004;55.096;38.760;2023-09-12T04:48:53;100648.22;;;9.89;67.26
77079;BME280;66004;55.096;38.760;2023-09-12T04:51:18;100646.81;;;10.00;67.30
77079;BME280;66004;55.096;38.760;2023-09-12T04:53:44;100638.72;;;10.07;66.94
77079;BME280;66004;55.096;38.760;2023-09-12T04:56:09;100654.03;;;10.24;66.98
77079;BME280;66004;55.096;38.760;2023-09-12T04:58:35;100642.66;;;10.29;66.82
77079;BME280;66004;55.096;38.760;2023-09-12T05:01:01;100651.19;;;10.46;66.20
77079;BME280;66004;55.096;38.760;2023-09-12T05:03:27;100648.06;;;10.57;66.03
77079;BME280;66004;55.096;38.760;2023-09-12T05:05:53;100648.59;;;10.67;65.86
77079;BME280;66004;55.096;38.760;2023-09-12T05:08:18;100646.34;;;10.78;65.73
77079;BME280;66004;55.096;38.760;2023-09-12T05:10:44;100646.00;;;10.88;66.00
77079;BME280;66004;55.096;38.760;2023-09-12T05:13:10;100649.03;;;11.01;65.44
77079;BME280;66004;55.096;38.760;2023-09-12T05:15:36;100656.97;;;11.07;65.51
77079;BME280;66004;55.096;38.760;2023-09-12T05:18:07;100652.34;;;11.03;65.44
77079;BME280;66004;55.096;38.760;2023-09-12T05:20:34;100638.75;;;10.87;65.34
77079;BME280;66004;55.096;38.760;2023-09-12T05:22:59;100658.97;;;11.07;65.92
77079;BME280;66004;55.096;38.760;2023-09-12T05:25:25;100661.00;;;11.15;65.76
77079;BME280;66004;55.096;38.760;2023-09-12T05:27:52;100653.69;;;11.14;65.69
77079;BME280;66004;55.096;38.760;2023-09-12T05:30:17;100665.66;;;11.28;65.24
77079;BME280;66004;55.096;38.760;2023-09-12T05:32:43;100644.75;;;11.29;65.43
77079;BME280;66004;55.096;38.760;2023-09-12T05:35:09;100665.31;;;11.56;65.79
77079;BME280;66004;55.096;38.760;2023-09-12T05:37:34;100668.28;;;11.68;65.59
77079;BME280;66004;55.096;38.760;2023-09-12T05:40:00;100674.09;;;11.72;65.72
77079;BME280;66004;55.096;38.760;2023-09-12T05:42:25;100670.97;;;11.74;65.49
77079;BME280;66004;55.096;38.760;2023-09-12T05:44:51;100663.16;;;11.71;65.65
77079;BME280;66004;55.096;38.760;2023-09-12T05:47:22;100670.44;;;11.98;65.88
77079;BME280;66004;55.096;38.760;2023-09-12T05:49:48;100676.50;;;12.26;65.24
77079;BME280;66004;55.096;38.760;2023-09-12T05:52:14;100672.78;;;12.52;64.41
77079;BME280;66004;55.096;38.760;2023-09-12T05:54:39;100676.72;;;12.68;64.10
77079;BME280;66004;55.096;38.760;2023-09-12T05:57:06;100670.56;;;12.66;64.48
77079;BME280;66004;55.096;38.760;2023-09-12T05:59:32;100674.84;;;12.72;64.84
77079;BME280;66004;55.096;38.760;2023-09-12T06:01:58;100675.50;;;12.78;64.69
77079;BME280;66004;55.096;38.760;2023-09-12T06:04:23;100674.69;;;12.77;64.82
77079;BME280;66004;55.096;38.760;2023-09-12T06:06:49;100687.50;;;12.96;64.33
77079;BME280;66004;55.096;38.760;2023-09-12T06:09:14;100667.66;;;13.13;63.99
77079;BME280;66004;55.096;38.760;2023-09-12T06:11:40;100673.09;;;13.18;64.65
77079;BME280;66004;55.096;38.760;2023-09-12T06:14:05;100672.25;;;13.18;64.34
77079;BME280;66004;55.096;38.760;2023-09-12T06:16:31;100665.31;;;13.15;65.11
77079;BME280;66004;55.096;38.760;2023-09-12T06:18:56;100669.00;;;13.37;64.74
77079;BME280;66004;55.096;38.760;2023-09-12T06:21:22;100673.69;;;13.75;64.72
77079;BME280;66004;55.096;38.760;2023-09-12T06:23:48;100680.63;;;14.32;63.37
77079;BME280;66004;55.096;38.760;2023-09-12T06:26:13;100672.09;;;14.77;62.17
77079;BME280;66004;55.096;38.760;2023-09-12T06:28:39;100671.34;;;15.17;61.37
77079;BME280;66004;55.096;38.760;2023-09-12T06:31:08;100670.59;;;15.45;60.96
77079;BME280;66004;55.096;38.760;2023-09-12T06:33:34;100670.09;;;15.55;60.82
77079;BME280;66004;55.096;38.760;2023-09-12T06:36:00;100670.38;;;15.50;60.93
77079;BME280;66004;55.096;38.760;2023-09-12T06:38:25;100675.66;;;15.52;61.26
77079;BME280;66004;55.096;38.760;2023-09-12T06:40:51;100670.41;;;15.66;60.94
77079;BME280;66004;55.096;38.760;2023-09-12T06:43:16;100677.16;;;15.74;60.94
77079;BME280;66004;55.096;38.760;2023-09-12T06:45:42;100677.75;;;15.67;61.53
77079;BME280;66004;55.096;38.760;2023-09-12T06:48:08;100665.16;;;15.52;61.95
77079;BME280;66004;55.096;38.760;2023-09-12T06:50:34;100680.03;;;15.49;62.37
77079;BME280;66004;55.096;38.760;2023-09-12T06:52:59;100677.94;;;15.34;62.67
77079;BME280;66004;55.096;38.760;2023-09-12T06:55:25;100682.41;;;15.35;62.56
77079;BME280;66004;55.096;38.760;2023-09-12T06:57:50;100679.22;;;15.36;62.68
77079;BME280;66004;55.096;38.760;2023-09-12T07:00:16;100675.13;;;15.34;62.63
77079;BME280;66004;55.096;38.760;2023-09-12T07:02:42;100668.47;;;15.42;62.47
77079;BME280;66004;55.096;38.760;2023-09-12T07:05:08;100679.69;;;15.51;62.69
77079;BME280;66004;55.096;38.760;2023-09-12T07:07:33;100680.72;;;15.58;62.49
77079;BME280;66004;55.096;38.760;2023-09-12T07:09:59;100675.53;;;15.61;62.33
77079;BME280;66004;55.096;38.760;2023-09-12T07:12:26;100684.94;;;15.65;62.42
77079;BME280;66004;55.096;38.760;2023-09-12T07:14:51;100681.75;;;15.66;62.70
77079;BME280;66004;55.096;38.760;2023-09-12T07:17:17;100672.56;;;15.69;62.31
77079;BME280;66004;55.096;38.760;2023-09-12T07:19:43;100671.59;;;15.77;62.82
77079;BME280;66004;55.096;38.760;2023-09-12T07:22:08;100676.66;;;15.84;62.61
77079;BME280;66004;55.096;38.760;2023-09-12T07:24:34;100683.38;;;15.92;62.28
77079;BME280;66004;55.096;38.760;2023-09-12T07:26:59;100684.41;;;16.00;62.20
77079;BME280;66004;55.096;38.760;2023-09-12T07:29:25;100673.16;;;16.03;61.85
77079;BME280;66004;55.096;38.760;2023-09-12T07:31:54;100687.28;;;16.15;61.69
77079;BME280;66004;55.096;38.760;2023-09-12T07:34:20;100682.91;;;16.18;61.43
77079;BME280;66004;55.096;38.760;2023-09-12T07:36:46;100681.69;;;16.19;62.04
77079;BME280;66004;55.096;38.760;2023-09-12T07:39:11;100685.91;;;16.25;61.47
77079;BME280;66004;55.096;38.760;2023-09-12T07:41:37;100686.00;;;16.29;61.58
77079;BME280;66004;55.096;38.760;2023-09-12T07:44:02;100677.59;;;16.32;61.81
77079;BME280;66004;55.096;38.760;2023-09-12T07:46:30;100677.44;;;16.41;61.42
77079;BME280;66004;55.096;38.760;2023-09-12T07:48:56;100677.72;;;16.52;61.31
77079;BME280;66004;55.096;38.760;2023-09-12T07:51:23;100682.84;;;16.62;61.26
77079;BME280;66004;55.096;38.760;2023-09-12T07:53:49;100681.56;;;16.76;61.23
77079;BME280;66004;55.096;38.760;2023-09-12T07:56:15;100679.28;;;16.81;60.83
77079;BME280;66004;55.096;38.760;2023-09-12T07:58:40;100673.63;;;16.97;60.45
77079;BME280;66004;55.096;38.760;2023-09-12T08:01:07;100678.78;;;17.27;60.24
77079;BME280;66004;55.096;38.760;2023-09-12T08:03:34;100673.88;;;17.63;59.67
77079;BME280;66004;55.096;38.760;2023-09-12T08:06:00;100674.84;;;17.86;59.30
77079;BME280;66004;55.096;38.760;2023-09-12T08:08:26;100673.94;;;18.02;58.32
77079;BME280;66004;55.096;38.760;2023-09-12T08:10:51;100670.03;;;18.10;57.92
77079;BME280;66004;55.096;38.760;2023-09-12T08:13:17;100671.97;;;18.25;57.81
77079;BME280;66004;55.096;38.760;2023-09-12T08:15:42;100672.34;;;18.47;57.74
77079;BME280;66004;55.096;38.760;2023-09-12T08:18:08;100666.16;;;18.64;56.80
77079;BME280;66004;55.096;38.760;2023-09-12T08:20:33;100663.13;;;18.77;56.71
77079;BME280;66004;55.096;38.760;2023-09-12T08:22:59;100660.19;;;18.96;56.68
77079;BME280;66004;55.096;38.760;2023-09-12T08:25:24;100657.03;;;19.01;56.03
77079;BME280;66004;55.096;38.760;2023-09-12T08:27:50;100657.78;;;18.98;55.79
77079;BME280;66004;55.096;38.760;2023-09-12T08:30:16;100658.69;;;19.02;56.08
77079;BME280;66004;55.096;38.760;2023-09-12T08:32:42;100657.34;;;18.96;56.15
77079;BME280;66004;55.096;38.760;2023-09-12T08:35:11;100655.28;;;18.93;55.69
77079;BME280;66004;55.096;38.760;2023-09-12T08:37:38;100662.63;;;18.94;55.60
77079;BME280;66004;55.096;38.760;2023-09-12T08:40:05;100662.50;;;18.87;55.58
77079;BME280;66004;55.096;38.760;2023-09-12T08:42:44;100665.78;;;18.89;55.80
77079;BME280;66004;55.096;38.760;2023-09-12T08:45:15;100656.59;;;18.99;55.39
77079;BME280;66004;55.096;38.760;2023-09-12T08:47:42;100657.84;;;19.02;55.02
77079;BME280;66004;55.096;38.760;2023-09-12T08:50:12;100659.22;;;19.12;55.26
77079;BME280;66004;55.096;38.760;2023-09-12T08:52:43;100656.28;;;19.31;54.80
77079;BME280;66004;55.096;38.760;2023-09-12T08:55:10;100660.97;;;19.47;53.98
77079;BME280;66004;55.096;38.760;2023-09-12T08:57:38;100655.00;;;19.59;53.23
77079;BME280;66004;55.096;38.760;2023-09-12T09:00:05;100653.13;;;19.70;52.24
77079;BME280;66004;55.096;38.760;2023-09-12T09:02:33;100660.47;;;19.71;52.10
77079;BME280;66004;55.096;38.760;2023-09-12T09:05:00;100652.25;;;19.66;51.94
77079;BME280;66004;55.096;38.760;2023-09-12T09:07:28;100655.53;;;19.68;52.09
77079;BME280;66004;55.096;38.760;2023-09-12T09:09:55;100654.56;;;19.57;51.64
77079;BME280;66004;55.096;38.760;2023-09-12T09:12:21;100658.13;;;19.47;51.90
77079;BME280;66004;55.096;38.760;2023-09-12T09:14:46;100653.97;;;19.40;51.50
77079;BME280;66004;55.096;38.760;2023-09-12T09:17:12;100655.84;;;19.29;51.44
77079;BME280;66004;55.096;38.760;2023-09-12T09:19:43;100653.19;;;19.17;51.13
77079;BME280;66004;55.096;38.760;2023-09-12T09:22:09;100654.75;;;19.11;50.94
77079;BME280;66004;55.096;38.760;2023-09-12T09:24:34;100652.19;;;19.05;50.82
77079;BME280;66004;55.096;38.760;2023-09-12T09:27:00;100652.69;;;19.11;51.38
77079;BME280;66004;55.096;38.760;2023-09-12T09:29:27;100658.13;;;19.20;51.62
77079;BME280;66004;55.096;38.760;2023-09-12T09:32:02;100653.19;;;19.17;52.44
77079;BME280;66004;55.096;38.760;2023-09-12T09:34:29;100655.50;;;19.08;52.91
77079;BME280;66004;55.096;38.760;2023-09-12T09:36:57;100657.16;;;19.09;52.87
77079;BME280;66004;55.096;38.760;2023-09-12T09:39:27;100662.97;;;19.16;53.41
77079;BME280;66004;55.096;38.760;2023-09-12T09:41:55;100662.72;;;19.28;52.78
77079;BME280;66004;55.096;38.760;2023-09-12T09:44:25;100661.63;;;19.36;52.56
77079;BME280;66004;55.096;38.760;2023-09-12T09:46:59;100656.81;;;19.40;52.63
77079;BME280;66004;55.096;38.760;2023-09-12T09:49:31;100653.28;;;19.51;52.95
77079;BME280;66004;55.096;38.760;2023-09-12T09:51:57;100644.56;;;19.40;52.95
77079;BME280;66004;55.096;38.760;2023-09-12T09:54:25;100656.47;;;19.45;53.16
77079;BME280;66004;55.096;38.760;2023-09-12T09:56:54;100650.38;;;19.47;52.66
77079;BME280;66004;55.096;38.760;2023-09-12T09:59:27;100657.72;;;19.48;52.61
77079;BME280;66004;55.096;38.760;2023-09-12T10:01:57;100659.31;;;19.45;52.43
77079;BME280;66004;55.096;38.760;2023-09-12T10:04:23;100649.34;;;19.32;52.45
77079;BME280;66004;55.096;38.760;2023-09-12T10:06:49;100658.34;;;19.34;52.38
77079;BME280;66004;55.096;38.760;2023-09-12T10:09:16;100648.53;;;19.32;52.97
77079;BME280;66004;55.096;38.760;2023-09-12T10:11:46;100652.31;;;19.39;52.80
77079;BME280;66004;55.096;38.760;2023-09-12T10:14:15;100658.94;;;19.47;52.42
77079;BME280;66004;55.096;38.760;2023-09-12T10:16:46;100648.78;;;19.50;52.38
77079;BME280;66004;55.096;38.760;2023-09-12T10:19:24;100656.19;;;19.54;52.00
77079;BME280;66004;55.096;38.760;2023-09-12T10:24:43;100664.34;;;19.56;50.96
77079;BME280;66004;55.096;38.760;2023-09-12T10:27:12;100653.38;;;19.58;50.73
77079;BME280;66004;55.096;38.760;2023-09-12T10:29:38;100647.22;;;19.56;49.99
77079;BME280;66004;55.096;38.760;2023-09-12T10:32:03;100654.56;;;19.57;50.19
77079;BME280;66004;55.096;38.760;2023-09-12T10:34:31;100656.28;;;19.61;49.45
77079;BME280;66004;55.096;38.760;2023-09-12T10:36:58;100657.53;;;19.64;48.81
77079;BME280;66004;55.096;38.760;2023-09-12T10:39:27;100653.84;;;19.63;48.25
77079;BME280;66004;55.096;38.760;2023-09-12T10:41:54;100651.91;;;19.71;47.80
77079;BME280;66004;55.096;38.760;2023-09-12T10:44:20;100647.41;;;19.70;47.57
77079;BME280;66004;55.096;38.760;2023-09-12T10:46:47;100652.38;;;19.73;46.72
77079;BME280;66004;55.096;38.760;2023-09-12T10:49:14;100634.47;;;19.76;46.40
77079;BME280;66004;55.096;38.760;2023-09-12T10:51:45;100637.22;;;19.69;46.24
77079;BME280;66004;55.096;38.760;2023-09-12T10:54:15;100640.16;;;19.73;45.78
77079;BME280;66004;55.096;38.760;2023-09-12T10:56:41;100638.53;;;19.75;45.50
77079;BME280;66004;55.096;38.760;2023-09-12T10:59:08;100642.66;;;19.78;45.12
77079;BME280;66004;55.096;38.760;2023-09-12T11:01:39;100642.63;;;19.74;44.74
77079;BME280;66004;55.096;38.760;2023-09-12T11:04:29;100640.97;;;19.73;45.28
77079;BME280;66004;55.096;38.760;2023-09-12T11:06:55;100651.47;;;19.69;45.37
77079;BME280;66004;55.096;38.760;2023-09-12T11:09:25;100640.88;;;19.70;45.27
77079;BME280;66004;55.096;38.760;2023-09-12T11:11:58;100655.59;;;19.72;45.41
77079;BME280;66004;55.096;38.760;2023-09-12T11:14:24;100644.25;;;19.75;45.99
77079;BME280;66004;55.096;38.760;2023-09-12T11:19:44;100635.25;;;19.73;45.97
77079;BME280;66004;55.096;38.760;2023-09-12T11:22:27;100641.81;;;19.77;46.09
77079;BME280;66004;55.096;38.760;2023-09-12T11:24:54;100628.34;;;19.74;46.07
77079;BME280;66004;55.096;38.760;2023-09-12T11:28:04;100632.06;;;19.78;45.97
77079;BME280;66004;55.096;38.760;2023-09-12T11:30:33;100627.94;;;19.76;45.75
77079;BME280;66004;55.096;38.760;2023-09-12T11:33:04;100633.69;;;19.79;45.86
77079;BME280;66004;55.096;38.760;2023-09-12T11:35:36;100634.47;;;19.76;45.66
77079;BME280;66004;55.096;38.760;2023-09-12T11:38:03;100630.06;;;19.82;46.09
77079;BME280;66004;55.096;38.760;2023-09-12T11:43:00;100635.53;;;19.95;45.77
77079;BME280;66004;55.096;38.760;2023-09-12T11:45:26;100634.78;;;20.01;45.57
77079;BME280;66004;55.096;38.760;2023-09-12T11:47:53;100634.72;;;19.98;44.82
77079;BME280;66004;55.096;38.760;2023-09-12T11:50:49;100625.72;;;19.96;44.05
77079;BME280;66004;55.096;38.760;2023-09-12T11:53:14;100631.50;;;19.99;44.36
77079;BME280;66004;55.096;38.760;2023-09-12T11:55:47;100628.19;;;19.97;43.97
77079;BME280;66004;55.096;38.760;2023-09-12T11:58:15;100626.16;;;19.98;43.81
77079;BME280;66004;55.096;38.760;2023-09-12T12:00:53;100628.25;;;20.01;44.21
77079;BME280;66004;55.096;38.760;2023-09-12T12:03:22;100626.59;;;20.00;44.06
77079;BME280;66004;55.096;38.760;2023-09-12T12:05:48;100619.69;;;20.01;44.18
77079;BME280;66004;55.096;38.760;2023-09-12T12:08:15;100630.75;;;20.06;43.71
77079;BME280;66004;55.096;38.760;2023-09-12T12:10:41;100621.72;;;20.04;44.71
77079;BME280;66004;55.096;38.760;2023-09-12T12:13:11;100627.44;;;20.04;44.42
77079;BME280;66004;55.096;38.760;2023-09-12T12:15:37;100625.84;;;20.07;44.85
77079;BME280;66004;55.096;38.760;2023-09-12T12:18:03;100636.47;;;20.10;44.78
77079;BME280;66004;55.096;38.760;2023-09-12T12:20:29;100625.09;;;20.13;44.64
77079;BME280;66004;55.096;38.760;2023-09-12T12:22:55;100630.91;;;20.20;44.61
77079;BME280;66004;55.096;38.760;2023-09-12T12:25:21;100621.91;;;20.18;44.92
77079;BME280;66004;55.096;38.760;2023-09-12T12:27:47;100633.31;;;20.18;44.54
77079;BME280;66004;55.096;38.760;2023-09-12T12:30:13;100624.31;;;20.16;44.64
77079;BME280;66004;55.096;38.760;2023-09-12T12:32:44;100628.47;;;20.22;44.37
77079;BME280;66004;55.096;38.760;2023-09-12T12:35:22;100630.97;;;20.28;44.18
77079;BME280;66004;55.096;38.760;2023-09-12T12:37:53;100630.94;;;20.24;43.86
77079;BME280;66004;55.096;38.760;2023-09-12T12:40:19;100634.25;;;20.30;44.08
77079;BME280;66004;55.096;38.760;2023-09-12T12:42:45;100635.06;;;20.30;44.12
77079;BME280;66004;55.096;38.760;2023-09-12T12:45:22;100633.50;;;20.33;44.18
77079;BME280;66004;55.096;38.760;2023-09-12T12:47:58;100635.63;;;20.43;44.23
77079;BME280;66004;55.096;38.760;2023-09-12T12:50:24;100624.59;;;20.45;44.46
77079;BME280;66004;55.096;38.760;2023-09-12T12:52:49;100628.78;;;20.51;44.08
77079;BME280;66004;55.096;38.760;2023-09-12T12:55:25;100635.31;;;20.52;44.45